createdAt,value
2019-05-19T00:01:52.258Z,96815.50
2019-05-19T00:04:22.503Z,96819.45
2019-05-19T00:06:52.703Z,96821.77
2019-05-19T00:09:22.894Z,96823.10
2019-05-19T00:11:53.118Z,96829.47
2019-05-19T00:14:23.378Z,96828.52
2019-05-19T00:16:53.591Z,96828.86
2019-05-19T00:19:26.789Z,96826.25
2019-05-19T00:21:55.729Z,96828.86
2019-05-19T00:24:25.960Z,96822.32
2019-05-19T00:26:56.335Z,96822.82
2019-05-19T00:29:26.544Z,96815.64
2019-05-19T00:31:56.761Z,96812.70
2019-05-19T00:34:26.974Z,96816.97
2019-05-19T00:36:57.202Z,96811.39
2019-05-19T00:39:27.418Z,96811.56
2019-05-19T00:41:57.628Z,96807.83
2019-05-19T00:44:27.853Z,96813.05
2019-05-19T00:46:58.091Z,96811.58
2019-05-19T00:49:40.656Z,96810.43
2019-05-19T00:52:00.299Z,96807.98
2019-05-19T00:54:30.517Z,96807.33
2019-05-19T00:57:02.941Z,96803.09
2019-05-19T00:59:34.296Z,96799.50
2019-05-19T01:02:04.766Z,96800.66
2019-05-19T01:04:34.981Z,96795.25
2019-05-19T01:07:05.301Z,96792.45
2019-05-19T01:09:38.417Z,96793.94
2019-05-19T01:12:08.679Z,96791.79
2019-05-19T01:14:39.143Z,96792.45
2019-05-19T01:17:09.393Z,96790.16
2019-05-19T01:19:40.175Z,96790.01
2019-05-19T01:22:10.725Z,96790.19
2019-05-19T01:24:40.955Z,96794.61
2019-05-19T01:27:11.163Z,96794.59
2019-05-19T01:29:41.463Z,96798.37
2019-05-19T01:32:11.958Z,96796.25
2019-05-19T01:34:42.183Z,96790.20
2019-05-19T01:37:12.372Z,96795.59
2019-05-19T01:39:43.068Z,96796.91
2019-05-19T01:42:13.266Z,96793.30
2019-05-19T01:44:43.510Z,96790.20
2019-05-19T01:47:13.717Z,96788.74
2019-05-19T01:49:43.981Z,96782.35
2019-05-19T01:52:14.179Z,96786.78
2019-05-19T01:54:44.595Z,96787.92
2019-05-19T01:57:14.795Z,96788.09
2019-05-19T01:59:45.022Z,96788.91
2019-05-19T02:02:15.275Z,96792.83
2019-05-19T02:04:45.518Z,96796.76
2019-05-19T02:07:15.729Z,96792.48
2019-05-19T02:09:46.047Z,96790.20
2019-05-19T02:12:16.267Z,96790.51
2019-05-19T02:14:46.469Z,96790.19
2019-05-19T02:17:16.697Z,96793.95
2019-05-19T02:19:49.329Z,96793.46
2019-05-19T02:22:20.537Z,96796.86
2019-05-19T02:24:50.739Z,96798.02
2019-05-19T02:27:20.933Z,96796.05
2019-05-19T02:29:51.132Z,96794.84
2019-05-19T02:32:21.374Z,96795.98
2019-05-19T02:34:51.608Z,96804.98
2019-05-19T02:37:21.822Z,96810.53
2019-05-19T02:39:52.102Z,96804.45
2019-05-19T02:42:22.944Z,96802.98
2019-05-19T02:44:54.411Z,96801.51
2019-05-19T02:47:26.275Z,96804.58
2019-05-19T02:49:57.825Z,96801.80
2019-05-19T02:52:28.859Z,96804.69
2019-05-19T02:55:01.745Z,96805.34
2019-05-19T02:57:33.761Z,96802.08
2019-05-19T03:00:08.302Z,96808.11
2019-05-19T03:02:38.501Z,96800.89
2019-05-19T03:05:08.808Z,96811.81
2019-05-19T03:07:39.010Z,96808.05
2019-05-19T03:10:09.475Z,96808.50
2019-05-19T03:12:39.696Z,96810.29
2019-05-19T03:15:10.158Z,96811.27
2019-05-19T03:17:40.354Z,96800.94
2019-05-19T03:20:10.907Z,96803.38
2019-05-19T03:22:41.125Z,96804.67
2019-05-19T03:25:11.572Z,96805.64
2019-05-19T03:27:41.773Z,96804.98
2019-05-19T03:30:32.830Z,96807.55
2019-05-19T03:33:04.685Z,96808.37
2019-05-19T03:35:34.898Z,96809.52
2019-05-19T03:38:05.263Z,96804.12
2019-05-19T03:40:35.572Z,96808.36
2019-05-19T03:43:05.785Z,96814.73
2019-05-19T03:45:36.034Z,96814.23
2019-05-19T03:48:06.491Z,96817.66
2019-05-19T03:50:36.703Z,96816.69
2019-05-19T03:53:06.924Z,96813.09
2019-05-19T03:55:37.619Z,96814.90
2019-05-19T03:58:07.821Z,96812.12
2019-05-19T04:00:38.045Z,96815.75
2019-05-19T04:03:08.273Z,96820.33
2019-05-19T04:05:38.508Z,96822.95
2019-05-19T04:08:08.710Z,96822.47
2019-05-19T04:10:38.933Z,96819.20
2019-05-19T04:13:09.144Z,96817.94
2019-05-19T04:15:39.412Z,96818.11
2019-05-19T04:18:09.663Z,96819.09
2019-05-19T04:20:39.869Z,96819.53
2019-05-19T04:23:10.068Z,96823.28
2019-05-19T04:25:40.280Z,96823.13
2019-05-19T04:28:10.502Z,96819.20
2019-05-19T04:30:40.710Z,96822.14
2019-05-19T04:33:10.982Z,96829.31
2019-05-19T04:35:41.276Z,96829.14
2019-05-19T04:38:11.524Z,96828.00
2019-05-19T04:40:43.065Z,96829.95
2019-05-19T04:43:13.287Z,96841.20
2019-05-19T04:45:43.510Z,96836.63
2019-05-19T04:48:13.724Z,96835.81
2019-05-19T04:50:43.932Z,96834.96
2019-05-19T04:53:14.160Z,96837.41
2019-05-19T04:55:44.365Z,96841.98
2019-05-19T04:58:14.641Z,96839.86
2019-05-19T05:00:44.854Z,96839.41
2019-05-19T05:03:15.080Z,96846.11
2019-05-19T05:05:45.304Z,96841.38
2019-05-19T05:08:28.761Z,96840.91
2019-05-19T05:10:47.421Z,96837.53
2019-05-19T05:13:17.627Z,96836.57
2019-05-19T05:15:48.233Z,96836.78
2019-05-19T05:18:18.422Z,96837.77
2019-05-19T05:20:48.619Z,96839.30
2019-05-19T05:23:18.839Z,96835.88
2019-05-19T05:25:49.116Z,96836.41
2019-05-19T05:28:19.347Z,96837.23
2019-05-19T05:30:49.559Z,96834.95
2019-05-19T05:33:20.760Z,96834.33
2019-05-19T05:35:50.969Z,96832.87
2019-05-19T05:38:21.207Z,96833.56
2019-05-19T05:40:51.405Z,96828.66
2019-05-19T05:43:21.697Z,96832.29
2019-05-19T05:45:51.920Z,96830.20
2019-05-19T05:48:22.225Z,96828.07
2019-05-19T05:50:52.414Z,96829.25
2019-05-19T05:53:22.645Z,96826.79
2019-05-19T05:55:52.843Z,96826.98
2019-05-19T05:58:23.070Z,96831.55
2019-05-19T06:00:53.268Z,96828.63
2019-05-19T06:03:23.475Z,96821.42
2019-05-19T06:05:53.749Z,96821.44
2019-05-19T06:08:23.948Z,96823.25
2019-05-19T06:10:54.143Z,96826.17
2019-05-19T06:13:24.361Z,96822.59
2019-05-19T06:15:54.548Z,96829.11
2019-05-19T06:18:24.758Z,96831.89
2019-05-19T06:20:55.001Z,96829.42
2019-05-19T06:23:25.192Z,96826.98
2019-05-19T06:25:55.405Z,96826.64
2019-05-19T06:28:25.612Z,96831.42
2019-05-19T06:30:55.835Z,96828.30
2019-05-19T06:33:26.056Z,96823.70
2019-05-19T06:35:56.258Z,96826.66
2019-05-19T06:38:26.467Z,96824.66
2019-05-19T06:40:56.668Z,96821.03
2019-05-19T06:43:26.891Z,96821.03
2019-05-19T06:45:57.109Z,96823.46
2019-05-19T06:48:27.332Z,96822.33
2019-05-19T06:50:57.527Z,96821.31
2019-05-19T06:53:27.749Z,96819.97
2019-05-19T06:55:57.989Z,96820.59
2019-05-19T06:58:28.199Z,96814.16
2019-05-19T07:00:59.251Z,96814.11
2019-05-19T07:03:29.591Z,96805.89
2019-05-19T07:05:59.788Z,96804.66
2019-05-19T07:08:30.032Z,96809.53
2019-05-19T07:11:00.225Z,96806.00
2019-05-19T07:13:30.460Z,96800.34
2019-05-19T07:16:00.664Z,96800.81
2019-05-19T07:18:30.905Z,96796.83
2019-05-19T07:21:01.124Z,96794.97
2019-05-19T07:23:31.367Z,96793.64
2019-05-19T07:26:01.581Z,96793.77
2019-05-19T07:28:31.863Z,96790.44
2019-05-19T07:31:02.405Z,96790.92
2019-05-19T07:33:32.775Z,96800.35
2019-05-19T07:36:02.992Z,96790.46
2019-05-19T07:38:33.215Z,96790.22
2019-05-19T07:41:03.605Z,96790.64
2019-05-19T07:43:33.751Z,96787.66
2019-05-19T07:46:04.116Z,96786.41
2019-05-19T07:48:34.327Z,96786.63
2019-05-19T07:51:04.567Z,96793.71
2019-05-19T07:53:42.526Z,96791.97
2019-05-19T07:56:06.796Z,96784.37
2019-05-19T07:58:37.093Z,96779.78
2019-05-19T08:01:07.298Z,96778.38
2019-05-19T08:03:37.532Z,96782.03
2019-05-19T08:06:07.822Z,96779.51
2019-05-19T08:08:38.117Z,96784.23
2019-05-19T08:11:08.404Z,96778.88
2019-05-19T08:13:38.655Z,96772.03
2019-05-19T08:16:08.865Z,96773.44
2019-05-19T08:18:39.080Z,96771.70
2019-05-19T08:21:09.309Z,96773.65
2019-05-19T08:23:39.554Z,96773.44
2019-05-19T08:26:09.788Z,96770.23
2019-05-19T08:28:39.991Z,96771.45
2019-05-19T08:31:10.210Z,96767.91
2019-05-19T08:33:40.473Z,96766.30
2019-05-19T08:36:10.703Z,96768.34
2019-05-19T08:38:40.919Z,96766.97
2019-05-19T08:41:11.185Z,96769.06
2019-05-19T08:43:41.433Z,96759.14
2019-05-19T08:46:11.658Z,96756.83
2019-05-19T08:48:41.892Z,96758.03
2019-05-19T08:51:12.100Z,96759.88
2019-05-19T08:53:42.339Z,96758.49
2019-05-19T08:56:12.570Z,96756.77
2019-05-19T08:58:42.802Z,96757.84
2019-05-19T09:01:13.029Z,96754.05
2019-05-19T09:03:43.247Z,96748.85
2019-05-19T09:06:13.454Z,96749.39
2019-05-19T09:08:43.636Z,96744.07
2019-05-19T09:11:13.882Z,96740.55
2019-05-19T09:13:44.228Z,96735.88
2019-05-19T09:16:14.450Z,96735.33
2019-05-19T09:18:44.659Z,96728.95
2019-05-19T09:21:14.865Z,96732.05
2019-05-19T09:23:45.166Z,96731.97
2019-05-19T09:26:15.380Z,96727.66
2019-05-19T09:28:45.611Z,96730.38
2019-05-19T09:31:15.914Z,96727.38
2019-05-19T09:33:46.211Z,96724.48
2019-05-19T09:36:16.430Z,96718.24
2019-05-19T09:38:46.754Z,96720.89
2019-05-19T09:41:16.977Z,96715.11
2019-05-19T09:43:47.178Z,96707.52
2019-05-19T09:46:17.400Z,96708.47
2019-05-19T09:48:49.262Z,96715.84
2019-05-19T09:51:19.482Z,96713.75
2019-05-19T09:53:49.786Z,96710.07
2019-05-19T09:56:21.021Z,96710.66
2019-05-19T09:58:51.217Z,96711.33
2019-05-19T10:01:21.437Z,96709.42
2019-05-19T10:03:51.669Z,96714.08
2019-05-19T10:06:21.913Z,96710.81
2019-05-19T10:08:55.088Z,96709.33
2019-05-19T10:12:04.320Z,96705.98
2019-05-19T10:14:34.584Z,96698.98
2019-05-19T10:17:04.880Z,96693.54
2019-05-19T10:19:35.088Z,96692.86
2019-05-19T10:22:05.655Z,96686.02
2019-05-19T10:24:35.840Z,96687.91
2019-05-19T10:27:06.306Z,96681.59
2019-05-19T10:29:36.647Z,96681.12
2019-05-19T10:32:07.013Z,96677.19
2019-05-19T10:34:38.258Z,96682.61
2019-05-19T10:37:08.465Z,96681.78
2019-05-19T10:39:39.535Z,96677.71
2019-05-19T10:42:09.850Z,96687.41
2019-05-19T10:44:40.057Z,96676.54
2019-05-19T10:47:10.298Z,96680.45
2019-05-19T10:49:42.984Z,96679.86
2019-05-19T10:52:12.413Z,96674.55
2019-05-19T10:54:42.611Z,96678.27
2019-05-19T10:57:12.860Z,96664.59
2019-05-19T10:59:43.077Z,96670.58
2019-05-19T11:02:14.945Z,96665.95
2019-05-19T11:04:45.137Z,96663.98
2019-05-19T11:07:15.375Z,96661.95
2019-05-19T11:09:45.621Z,96666.70
2019-05-19T11:12:29.167Z,96667.38
2019-05-19T11:14:59.385Z,96668.56
2019-05-19T11:17:29.679Z,96664.70
2019-05-19T11:19:59.924Z,96658.12
2019-05-19T11:22:30.205Z,96657.04
2019-05-19T11:25:00.471Z,96653.39
2019-05-19T11:27:30.704Z,96652.74
2019-05-19T11:30:00.941Z,96643.09
2019-05-19T11:32:31.138Z,96641.31
2019-05-19T11:35:01.345Z,96648.68
2019-05-19T11:37:31.597Z,96642.53
2019-05-19T11:40:01.875Z,96651.50
2019-05-19T11:42:32.089Z,96647.31
2019-05-19T11:45:02.307Z,96649.42
2019-05-19T11:47:32.551Z,96647.08
2019-05-19T11:50:02.842Z,96651.89
2019-05-19T11:52:33.047Z,96651.41
2019-05-19T11:55:03.834Z,96651.02
2019-05-19T11:57:34.055Z,96654.34
2019-05-19T12:00:06.659Z,96659.00
2019-05-19T12:02:36.872Z,96660.34
2019-05-19T12:05:07.165Z,96661.55
2019-05-19T12:07:37.381Z,96658.06
2019-05-19T12:10:08.509Z,96653.37
2019-05-19T12:12:38.759Z,96655.91
2019-05-19T12:15:10.452Z,96652.25
2019-05-19T12:17:40.702Z,96653.20
2019-05-19T12:20:11.146Z,96650.86
2019-05-19T12:22:41.390Z,96649.52
2019-05-19T12:25:11.747Z,96644.94
2019-05-19T12:27:42.088Z,96644.95
2019-05-19T12:30:17.011Z,96645.06
2019-05-19T12:32:47.339Z,96638.26
2019-05-19T12:35:18.031Z,96636.59
2019-05-19T12:37:48.277Z,96639.29
2019-05-19T12:40:22.309Z,96631.96
2019-05-19T12:42:50.617Z,96630.05
2019-05-19T12:45:21.639Z,96624.95
2019-05-19T12:47:52.549Z,96621.18
2019-05-19T12:50:22.917Z,96615.99
2019-05-19T12:52:53.148Z,96613.28
2019-05-19T12:55:23.355Z,96614.58
2019-05-19T12:57:53.559Z,96615.50
2019-05-19T13:00:23.936Z,96602.97
2019-05-19T13:02:54.152Z,96601.44
2019-05-19T13:05:24.457Z,96592.36
2019-05-19T13:07:54.691Z,96589.62
2019-05-19T13:10:24.913Z,96587.67
2019-05-19T13:12:55.217Z,96581.98
2019-05-19T13:15:25.483Z,96583.12
2019-05-19T13:17:55.717Z,96584.39
2019-05-19T13:20:25.915Z,96572.02
2019-05-19T13:22:56.235Z,96572.00
2019-05-19T13:25:26.478Z,96565.91
2019-05-19T13:27:56.750Z,96564.13
2019-05-19T13:30:27.162Z,96565.55
2019-05-19T13:32:58.070Z,96566.72
2019-05-19T13:35:28.300Z,96564.52
2019-05-19T13:37:58.607Z,96560.95
2019-05-19T13:40:28.838Z,96566.13
2019-05-19T13:42:59.080Z,96553.23
2019-05-19T13:45:29.284Z,96568.55
2019-05-19T13:47:59.524Z,96561.51
2019-05-19T13:50:29.741Z,96561.80
2019-05-19T13:52:59.994Z,96566.23
2019-05-19T13:55:30.215Z,96564.61
2019-05-19T13:58:03.441Z,96568.23
2019-05-19T14:00:32.498Z,96565.74
2019-05-19T14:03:02.794Z,96564.69
2019-05-19T14:05:33.039Z,96563.44
2019-05-19T14:08:03.286Z,96560.00
2019-05-19T14:10:33.504Z,96555.25
2019-05-19T14:13:03.751Z,96547.56
2019-05-19T14:15:34.040Z,96548.73
2019-05-19T14:18:04.514Z,96539.47
2019-05-19T14:20:34.755Z,96535.70
2019-05-19T14:23:04.945Z,96533.19
2019-05-19T14:25:35.191Z,96526.11
2019-05-19T14:28:05.468Z,96519.71
2019-05-19T14:30:35.772Z,96518.55
2019-05-19T14:33:06.048Z,96520.01
2019-05-19T14:35:36.264Z,96515.61
2019-05-19T14:38:06.469Z,96515.71
2019-05-19T14:40:36.730Z,96509.08
2019-05-19T14:43:07.003Z,96510.05
2019-05-19T14:45:37.246Z,96502.22
2019-05-19T14:48:07.502Z,96500.95
2019-05-19T14:50:37.746Z,96505.19
2019-05-19T14:53:07.978Z,96497.79
2019-05-19T14:55:38.331Z,96484.19
2019-05-19T14:58:08.607Z,96485.39
2019-05-19T15:00:38.835Z,96484.03
2019-05-19T15:03:09.064Z,96489.55
2019-05-19T15:05:39.284Z,96485.27
2019-05-19T15:08:09.553Z,96473.20
2019-05-19T15:10:39.762Z,96471.87
2019-05-19T15:13:10.027Z,96469.16
2019-05-19T15:15:40.202Z,96469.75
2019-05-19T15:18:10.433Z,96464.30
2019-05-19T15:20:40.650Z,96460.64
2019-05-19T15:23:10.867Z,96466.92
2019-05-19T15:25:41.261Z,96467.69
2019-05-19T15:28:11.483Z,96464.34
2019-05-19T15:30:41.691Z,96460.03
2019-05-19T15:33:11.966Z,96455.59
2019-05-19T15:35:42.192Z,96456.16
2019-05-19T15:38:12.419Z,96454.76
2019-05-19T15:40:42.626Z,96449.67
2019-05-19T15:43:12.835Z,96446.54
2019-05-19T15:45:43.034Z,96437.11
2019-05-19T15:48:13.243Z,96439.75
2019-05-19T15:50:43.493Z,96441.72
2019-05-19T15:53:13.693Z,96440.69
2019-05-19T15:55:43.955Z,96435.80
2019-05-19T15:58:16.885Z,96435.38
2019-05-19T16:00:46.144Z,96436.38
2019-05-19T16:03:16.339Z,96431.56
2019-05-19T16:05:46.575Z,96436.94
2019-05-19T16:08:16.795Z,96433.73
2019-05-19T16:10:47.003Z,96430.95
2019-05-19T16:13:17.244Z,96433.14
2019-05-19T16:15:47.443Z,96438.38
2019-05-19T16:18:17.641Z,96435.61
2019-05-19T16:20:47.860Z,96441.79
2019-05-19T16:23:18.106Z,96441.52
2019-05-19T16:25:48.337Z,96440.77
2019-05-19T16:28:29.927Z,96446.39
2019-05-19T16:30:50.472Z,96449.56
2019-05-19T16:33:21.533Z,96453.80
2019-05-19T16:35:51.769Z,96456.72
2019-05-19T16:38:21.965Z,96466.48
2019-05-19T16:40:52.211Z,96465.45
2019-05-19T16:43:22.431Z,96464.53
2019-05-19T16:45:52.657Z,96467.78
2019-05-19T16:48:23.453Z,96467.63
2019-05-19T16:50:53.812Z,96478.29
2019-05-19T16:53:24.010Z,96498.33
2019-05-19T16:55:54.241Z,96495.11
2019-05-19T16:58:24.458Z,96494.92
2019-05-19T17:00:54.682Z,96502.09
2019-05-19T17:03:24.879Z,96504.98
2019-05-19T17:05:55.118Z,96498.03
2019-05-19T17:08:25.295Z,96492.63
2019-05-19T17:10:55.514Z,96487.95
2019-05-19T17:13:25.731Z,96481.06
2019-05-19T17:15:55.931Z,96481.61
2019-05-19T17:18:26.137Z,96482.92
2019-05-19T17:20:56.342Z,96480.09
2019-05-19T17:23:26.578Z,96483.91
2019-05-19T17:25:56.816Z,96480.58
2019-05-19T17:28:27.350Z,96474.62
2019-05-19T17:30:57.579Z,96473.77
2019-05-19T17:33:27.850Z,96470.66
2019-05-19T17:35:58.066Z,96465.57
2019-05-19T17:38:28.279Z,96469.86
2019-05-19T17:40:58.490Z,96465.77
2019-05-19T17:43:28.738Z,96469.00
2019-05-19T17:45:59.020Z,96468.86
2019-05-19T17:48:29.237Z,96480.42
2019-05-19T17:50:59.453Z,96480.11
2019-05-19T17:53:29.763Z,96480.55
2019-05-19T17:56:00.497Z,96484.03
2019-05-19T17:58:32.070Z,96486.35
2019-05-19T18:01:02.291Z,96489.53
2019-05-19T18:03:33.129Z,96481.58
2019-05-19T18:06:03.326Z,96485.38
2019-05-19T18:08:33.609Z,96480.53
2019-05-19T18:11:03.802Z,96489.99
2019-05-19T18:13:34.078Z,96494.69
2019-05-19T18:16:04.488Z,96510.52
2019-05-19T18:18:34.728Z,96514.69
2019-05-19T18:21:05.097Z,96522.53
2019-05-19T18:23:35.332Z,96535.37
2019-05-19T18:26:07.308Z,96548.52
2019-05-19T18:28:37.576Z,96556.97
2019-05-19T18:31:07.774Z,96554.73
2019-05-19T18:33:37.993Z,96567.70
2019-05-19T18:36:08.238Z,96582.53
2019-05-19T18:38:38.485Z,96595.20
2019-05-19T18:41:08.713Z,96606.98
2019-05-19T18:43:38.948Z,96597.42
2019-05-19T18:46:09.153Z,96589.91
2019-05-19T18:48:39.437Z,96585.56
2019-05-19T18:51:09.634Z,96578.82
2019-05-19T18:53:39.888Z,96584.20
2019-05-19T18:56:10.132Z,96580.31
2019-05-19T18:58:40.479Z,96575.20
2019-05-19T19:01:10.797Z,96575.52
2019-05-19T19:03:41.193Z,96593.22
2019-05-19T19:06:11.670Z,96619.71
2019-05-19T19:08:41.899Z,96629.25
2019-05-19T19:11:12.144Z,96633.58
2019-05-19T19:13:42.858Z,96645.98
2019-05-19T19:16:13.127Z,96649.39
2019-05-19T19:18:43.326Z,96648.61
2019-05-19T19:21:13.574Z,96642.52
2019-05-19T19:23:43.844Z,96645.66
2019-05-19T19:26:14.199Z,96647.39
2019-05-19T19:28:44.416Z,96638.28
2019-05-19T19:31:14.676Z,96644.58
2019-05-19T19:33:44.917Z,96644.19
2019-05-19T19:36:15.200Z,96635.88
2019-05-19T19:38:45.484Z,96640.67
2019-05-19T19:41:15.714Z,96640.52
2019-05-19T19:43:45.929Z,96636.84
2019-05-19T19:46:16.267Z,96643.72
2019-05-19T19:48:46.503Z,96639.42
2019-05-19T19:51:16.774Z,96640.42
2019-05-19T19:53:46.969Z,96643.41
2019-05-19T19:56:17.200Z,96646.84
2019-05-19T19:58:47.463Z,96646.20
2019-05-19T20:01:18.243Z,96645.02
2019-05-19T20:03:48.466Z,96651.40
2019-05-19T20:06:18.716Z,96658.78
2019-05-19T20:08:48.985Z,96663.91
2019-05-19T20:11:19.251Z,96671.11
2019-05-19T20:13:49.454Z,96675.34
2019-05-19T20:16:19.714Z,96670.73
2019-05-19T20:18:49.918Z,96674.16
2019-05-19T20:21:20.213Z,96679.55
2019-05-19T20:23:50.470Z,96689.04
2019-05-19T20:26:21.873Z,96686.42
2019-05-19T20:28:52.121Z,96696.64
2019-05-19T20:31:22.410Z,96695.88
2019-05-19T20:33:52.730Z,96691.84
2019-05-19T20:36:22.952Z,96695.02
2019-05-19T20:38:53.165Z,96692.09
2019-05-19T20:41:23.403Z,96696.06
2019-05-19T20:43:53.603Z,96692.94
2019-05-19T20:46:23.835Z,96691.97
2019-05-19T20:48:54.072Z,96696.41
2019-05-19T20:51:24.334Z,96700.55
2019-05-19T20:53:54.540Z,96701.05
2019-05-19T20:56:25.725Z,96697.28
2019-05-19T20:58:55.950Z,96695.02
2019-05-19T21:01:26.205Z,96691.23
2019-05-19T21:03:56.424Z,96688.13
2019-05-19T21:06:26.672Z,96683.57
2019-05-19T21:08:56.895Z,96678.82
2019-05-19T21:11:27.197Z,96683.59
2019-05-19T21:13:57.430Z,96686.24
2019-05-19T21:16:27.677Z,96687.73
2019-05-19T21:18:57.961Z,96685.28
2019-05-19T21:21:28.179Z,96683.98
2019-05-19T21:23:58.495Z,96682.51
2019-05-19T21:26:28.708Z,96683.16
2019-05-19T21:28:58.933Z,96680.21
2019-05-19T21:31:29.238Z,96675.64
2019-05-19T21:33:59.799Z,96676.98
2019-05-19T21:36:30.677Z,96679.78
2019-05-19T21:39:00.910Z,96680.80
2019-05-19T21:41:31.134Z,96676.70
2019-05-19T21:44:03.504Z,96680.52
2019-05-19T21:46:33.724Z,96678.41
2019-05-19T21:49:03.926Z,96677.95
2019-05-19T21:51:34.122Z,96685.02
2019-05-19T21:54:04.930Z,96682.36
2019-05-19T21:56:35.130Z,96679.08
2019-05-19T21:59:05.445Z,96680.43
2019-05-19T22:01:35.680Z,96683.20
2019-05-19T22:04:05.991Z,96686.31
2019-05-19T22:06:37.848Z,96690.92
2019-05-19T22:09:08.075Z,96680.08
2019-05-19T22:11:38.298Z,96678.11
2019-05-19T22:14:08.513Z,96676.13
2019-05-19T22:16:38.758Z,96678.76
2019-05-19T22:19:09.030Z,96678.94
2019-05-19T22:21:39.268Z,96682.88
2019-05-19T22:24:09.491Z,96684.18
2019-05-19T22:26:39.722Z,96681.23
2019-05-19T22:29:09.932Z,96687.77
2019-05-19T22:31:40.196Z,96690.56
2019-05-19T22:34:10.490Z,96689.41
2019-05-19T22:36:40.744Z,96689.58
2019-05-19T22:39:10.955Z,96688.61
2019-05-19T22:41:41.209Z,96689.95
2019-05-19T22:44:11.401Z,96687.86
2019-05-19T22:46:41.658Z,96683.78
2019-05-19T22:49:11.939Z,96689.84
2019-05-19T22:51:42.159Z,96689.17
2019-05-19T22:54:12.367Z,96680.19
2019-05-19T22:56:42.584Z,96681.52
2019-05-19T22:59:19.793Z,96679.08
2019-05-19T23:01:51.761Z,96683.19
2019-05-19T23:04:16.675Z,96679.29
2019-05-19T23:06:46.893Z,96675.86
2019-05-19T23:09:17.101Z,96677.64
2019-05-19T23:11:47.361Z,96676.66
2019-05-19T23:14:17.565Z,96678.80
2019-05-19T23:16:47.791Z,96682.27
2019-05-19T23:19:18.022Z,96676.92
2019-05-19T23:21:48.275Z,96680.02
2019-05-19T23:24:18.470Z,96677.72
2019-05-19T23:26:48.684Z,96677.56
2019-05-19T23:29:18.909Z,96671.03
2019-05-19T23:31:49.136Z,96673.51
2019-05-19T23:34:19.435Z,96675.48
2019-05-19T23:36:49.705Z,96676.13
2019-05-19T23:39:19.941Z,96675.30
2019-05-19T23:41:50.169Z,96670.89
2019-05-19T23:44:20.430Z,96673.50
2019-05-19T23:46:50.644Z,96674.30
2019-05-19T23:49:22.000Z,96665.12
2019-05-19T23:51:52.239Z,96665.77
2019-05-19T23:54:22.501Z,96663.97
2019-05-19T23:56:52.721Z,96661.19
2019-05-19T23:59:22.961Z,96657.77
